sensor_id;sensor_type;location;lat;lon;timestamp;temperature;humidity
12557;DHT22;6344;49.932;8.308;2022-11-15T00:01:08;6.30;99.90
12557;DHT22;6344;49.932;8.308;2022-11-15T00:03:35;6.60;99.90
12557;DHT22;6344;49.932;8.308;2022-11-15T00:06:05;6.50;99.90
12557;DHT22;6344;49.932;8.308;2022-11-15T00:08:33;6.50;99.90
12557;DHT22;6344;49.932;8.308;2022-11-15T00:11:02;6.50;99.90
12557;DHT22;6344;49.932;8.308;2022-11-15T00:13:31;6.70;99.90
12557;DHT22;6344;49.932;8.308;2022-11-15T00:15:58;6.70;99.90
12557;DHT22;6344;49.932;8.308;2022-11-15T00:18:26;6.90;99.90
12557;DHT22;6344;49.932;8.308;2022-11-15T00:20:56;6.90;99.90
12557;DHT22;6344;49.932;8.308;2022-11-15T00:23:23;7.00;99.90
12557;DHT22;6344;49.932;8.308;2022-11-15T00:25:55;7.00;99.90
12557;DHT22;6344;49.932;8.308;2022-11-15T00:28:24;7.00;99.90
12557;DHT22;6344;49.932;8.308;2022-11-15T00:30:50;7.10;99.90
12557;DHT22;6344;49.932;8.308;2022-11-15T00:33:17;7.10;99.90
12557;DHT22;6344;49.932;8.308;2022-11-15T00:35:49;7.20;99.90
12557;DHT22;6344;49.932;8.308;2022-11-15T00:38:18;7.10;99.90
12557;DHT22;6344;49.932;8.308;2022-11-15T00:40:44;7.20;99.90
12557;DHT22;6344;49.932;8.308;2022-11-15T00:43:11;7.40;99.90
12557;DHT22;6344;49.932;8.308;2022-11-15T00:45:40;7.60;99.90
12557;DHT22;6344;49.932;8.308;2022-11-15T00:48:07;7.60;99.90
12557;DHT22;6344;49.932;8.308;2022-11-15T00:50:33;7.70;99.90
12557;DHT22;6344;49.932;8.308;2022-11-15T00:53:03;7.80;99.90
12557;DHT22;6344;49.932;8.308;2022-11-15T00:55:32;7.70;99.90
12557;DHT22;6344;49.932;8.308;2022-11-15T00:57:58;7.70;99.90
12557;DHT22;6344;49.932;8.308;2022-11-15T01:00:25;7.70;99.90
12557;DHT22;6344;49.932;8.308;2022-11-15T01:02:52;7.70;99.90
12557;DHT22;6344;49.932;8.308;2022-11-15T01:05:23;7.70;99.90
12557;DHT22;6344;49.932;8.308;2022-11-15T01:07:53;7.70;99.90
12557;DHT22;6344;49.932;8.308;2022-11-15T01:10:22;7.60;99.90
12557;DHT22;6344;49.932;8.308;2022-11-15T01:12:51;7.60;99.90
12557;DHT22;6344;49.932;8.308;2022-11-15T01:15:20;7.70;99.90
12557;DHT22;6344;49.932;8.308;2022-11-15T01:17:54;7.70;99.90
12557;DHT22;6344;49.932;8.308;2022-11-15T01:20:21;7.60;99.90
12557;DHT22;6344;49.932;8.308;2022-11-15T01:22:56;7.60;99.90
12557;DHT22;6344;49.932;8.308;2022-11-15T01:25:26;7.50;99.90
12557;DHT22;6344;49.932;8.308;2022-11-15T01:27:54;7.50;99.90
12557;DHT22;6344;49.932;8.308;2022-11-15T01:30:23;7.60;99.90
12557;DHT22;6344;49.932;8.308;2022-11-15T01:32:52;7.50;99.90
12557;DHT22;6344;49.932;8.308;2022-11-15T01:35:25;7.60;99.90
12557;DHT22;6344;49.932;8.308;2022-11-15T01:37:52;7.60;99.90
12557;DHT22;6344;49.932;8.308;2022-11-15T01:40:19;7.70;99.90
12557;DHT22;6344;49.932;8.308;2022-11-15T01:42:50;7.60;99.90
12557;DHT22;6344;49.932;8.308;2022-11-15T01:45:19;7.60;99.90
12557;DHT22;6344;49.932;8.308;2022-11-15T01:47:50;7.50;99.90
12557;DHT22;6344;49.932;8.308;2022-11-15T01:50:23;7.40;99.90
12557;DHT22;6344;49.932;8.308;2022-11-15T01:52:53;7.50;99.90
12557;DHT22;6344;49.932;8.308;2022-11-15T01:55:23;7.60;99.90
12557;DHT22;6344;49.932;8.308;2022-11-15T01:57:59;7.50;99.90
12557;DHT22;6344;49.932;8.308;2022-11-15T02:00:26;7.50;99.90
12557;DHT22;6344;49.932;8.308;2022-11-15T02:02:53;7.50;99.90
12557;DHT22;6344;49.932;8.308;2022-11-15T02:05:19;7.50;99.90
12557;DHT22;6344;49.932;8.308;2022-11-15T02:07:47;7.60;99.90
12557;DHT22;6344;49.932;8.308;2022-11-15T02:10:18;7.50;99.90
12557;DHT22;6344;49.932;8.308;2022-11-15T02:12:45;7.50;99.90
12557;DHT22;6344;49.932;8.308;2022-11-15T02:15:14;7.50;99.90
12557;DHT22;6344;49.932;8.308;2022-11-15T02:18:07;7.60;99.90
12557;DHT22;6344;49.932;8.308;2022-11-15T02:20:58;7.60;99.90
12557;DHT22;6344;49.932;8.308;2022-11-15T02:24:05;7.70;99.90
12557;DHT22;6344;49.932;8.308;2022-11-15T02:27:08;7.80;99.90
12557;DHT22;6344;49.932;8.308;2022-11-15T02:30:02;7.80;99.90
12557;DHT22;6344;49.932;8.308;2022-11-15T02:32:35;7.70;99.90
12557;DHT22;6344;49.932;8.308;2022-11-15T02:35:10;7.70;99.90
12557;DHT22;6344;49.932;8.308;2022-11-15T02:37:45;8.00;99.90
12557;DHT22;6344;49.932;8.308;2022-11-15T02:40:28;8.10;99.90
12557;DHT22;6344;49.932;8.308;2022-11-15T02:43:11;7.90;99.90
12557;DHT22;6344;49.932;8.308;2022-11-15T02:46:00;7.80;99.90
12557;DHT22;6344;49.932;8.308;2022-11-15T02:48:34;7.80;99.90
12557;DHT22;6344;49.932;8.308;2022-11-15T02:51:01;7.70;99.90
12557;DHT22;6344;49.932;8.308;2022-11-15T02:53:31;7.60;99.90
12557;DHT22;6344;49.932;8.308;2022-11-15T02:56:01;7.70;99.90
12557;DHT22;6344;49.932;8.308;2022-11-15T02:58:52;7.60;99.90
12557;DHT22;6344;49.932;8.308;2022-11-15T03:01:33;7.50;99.90
12557;DHT22;6344;49.932;8.308;2022-11-15T03:04:22;7.40;99.90
12557;DHT22;6344;49.932;8.308;2022-11-15T03:06:53;7.30;99.90
12557;DHT22;6344;49.932;8.308;2022-11-15T03:09:29;7.30;99.90
12557;DHT22;6344;49.932;8.308;2022-11-15T03:12:03;7.50;99.90
12557;DHT22;6344;49.932;8.308;2022-11-15T03:14:37;7.40;99.90
12557;DHT22;6344;49.932;8.308;2022-11-15T03:20:59;7.40;99.90
12557;DHT22;6344;49.932;8.308;2022-11-15T03:23:34;7.40;99.90
12557;DHT22;6344;49.932;8.308;2022-11-15T03:26:06;7.50;99.90
12557;DHT22;6344;49.932;8.308;2022-11-15T03:28:37;7.60;99.90
12557;DHT22;6344;49.932;8.308;2022-11-15T03:31:16;7.70;99.90
12557;DHT22;6344;49.932;8.308;2022-11-15T03:34:04;7.80;99.90
12557;DHT22;6344;49.932;8.308;2022-11-15T03:36:34;8.00;99.90
12557;DHT22;6344;49.932;8.308;2022-11-15T03:39:06;8.20;99.90
12557;DHT22;6344;49.932;8.308;2022-11-15T03:41:37;8.40;99.90
12557;DHT22;6344;49.932;8.308;2022-11-15T03:44:11;8.80;99.90
12557;DHT22;6344;49.932;8.308;2022-11-15T03:46:55;9.00;99.90
12557;DHT22;6344;49.932;8.308;2022-11-15T03:49:28;9.10;99.90
12557;DHT22;6344;49.932;8.308;2022-11-15T03:52:04;9.20;99.90
12557;DHT22;6344;49.932;8.308;2022-11-15T03:54:37;9.30;99.90
12557;DHT22;6344;49.932;8.308;2022-11-15T03:57:15;9.50;99.90
12557;DHT22;6344;49.932;8.308;2022-11-15T03:59:45;9.60;99.90
12557;DHT22;6344;49.932;8.308;2022-11-15T04:02:16;9.60;99.90
12557;DHT22;6344;49.932;8.308;2022-11-15T04:04:44;9.70;99.90
12557;DHT22;6344;49.932;8.308;2022-11-15T04:07:14;9.80;99.90
12557;DHT22;6344;49.932;8.308;2022-11-15T04:09:43;9.90;99.90
12557;DHT22;6344;49.932;8.308;2022-11-15T04:12:29;10.00;99.90
12557;DHT22;6344;49.932;8.308;2022-11-15T04:15:06;10.10;99.90
12557;DHT22;6344;49.932;8.308;2022-11-15T04:17:34;10.10;99.90
12557;DHT22;6344;49.932;8.308;2022-11-15T04:20:04;10.10;99.90
12557;DHT22;6344;49.932;8.308;2022-11-15T04:22:52;10.10;99.90
12557;DHT22;6344;49.932;8.308;2022-11-15T04:25:38;10.10;99.90
12557;DHT22;6344;49.932;8.308;2022-11-15T04:28:07;10.20;99.90
12557;DHT22;6344;49.932;8.308;2022-11-15T04:30:38;10.30;99.90
12557;DHT22;6344;49.932;8.308;2022-11-15T04:33:07;10.30;99.90
12557;DHT22;6344;49.932;8.308;2022-11-15T04:35:34;10.30;99.90
12557;DHT22;6344;49.932;8.308;2022-11-15T04:38:04;10.40;99.90
12557;DHT22;6344;49.932;8.308;2022-11-15T04:40:31;10.30;99.90
12557;DHT22;6344;49.932;8.308;2022-11-15T04:43:00;10.40;99.90
12557;DHT22;6344;49.932;8.308;2022-11-15T04:45:30;10.50;99.90
12557;DHT22;6344;49.932;8.308;2022-11-15T04:47:59;10.40;99.90
12557;DHT22;6344;49.932;8.308;2022-11-15T04:50:25;10.40;99.90
12557;DHT22;6344;49.932;8.308;2022-11-15T04:52:53;10.40;99.90
12557;DHT22;6344;49.932;8.308;2022-11-15T04:55:24;10.40;99.90
12557;DHT22;6344;49.932;8.308;2022-11-15T04:57:57;10.40;99.90
12557;DHT22;6344;49.932;8.308;2022-11-15T05:00:25;10.50;99.90
12557;DHT22;6344;49.932;8.308;2022-11-15T05:02:52;10.40;99.90
12557;DHT22;6344;49.932;8.308;2022-11-15T05:05:39;10.40;99.90
12557;DHT22;6344;49.932;8.308;2022-11-15T05:08:08;10.50;99.90
12557;DHT22;6344;49.932;8.308;2022-11-15T05:10:39;10.70;99.90
12557;DHT22;6344;49.932;8.308;2022-11-15T05:13:07;10.60;99.90
12557;DHT22;6344;49.932;8.308;2022-11-15T05:15:36;10.60;99.90
12557;DHT22;6344;49.932;8.308;2022-11-15T05:18:05;10.50;99.90
12557;DHT22;6344;49.932;8.308;2022-11-15T05:20:32;10.50;99.90
12557;DHT22;6344;49.932;8.308;2022-11-15T05:22:59;10.50;99.90
12557;DHT22;6344;49.932;8.308;2022-11-15T05:25:26;10.40;99.90
12557;DHT22;6344;49.932;8.308;2022-11-15T05:27:55;10.40;99.90
12557;DHT22;6344;49.932;8.308;2022-11-15T05:30:22;10.40;99.90
12557;DHT22;6344;49.932;8.308;2022-11-15T05:32:49;10.40;99.90
12557;DHT22;6344;49.932;8.308;2022-11-15T05:35:24;10.30;99.90
12557;DHT22;6344;49.932;8.308;2022-11-15T05:37:52;10.30;99.90
12557;DHT22;6344;49.932;8.308;2022-11-15T05:40:20;10.30;99.90
12557;DHT22;6344;49.932;8.308;2022-11-15T05:42:49;10.40;99.90
12557;DHT22;6344;49.932;8.308;2022-11-15T05:45:21;10.30;99.90
12557;DHT22;6344;49.932;8.308;2022-11-15T05:47:48;10.20;99.90
12557;DHT22;6344;49.932;8.308;2022-11-15T05:50:18;10.40;99.90
12557;DHT22;6344;49.932;8.308;2022-11-15T05:52:46;10.30;99.90
12557;DHT22;6344;49.932;8.308;2022-11-15T05:55:14;10.30;99.90
12557;DHT22;6344;49.932;8.308;2022-11-15T05:57:41;10.30;99.90
12557;DHT22;6344;49.932;8.308;2022-11-15T06:00:08;10.30;99.90
12557;DHT22;6344;49.932;8.308;2022-11-15T06:02:42;10.40;99.90
12557;DHT22;6344;49.932;8.308;2022-11-15T06:05:09;10.40;99.90
12557;DHT22;6344;49.932;8.308;2022-11-15T06:07:39;10.50;99.90
12557;DHT22;6344;49.932;8.308;2022-11-15T06:10:13;10.50;99.90
12557;DHT22;6344;49.932;8.308;2022-11-15T06:12:42;10.50;99.90
12557;DHT22;6344;49.932;8.308;2022-11-15T06:15:09;10.50;99.90
12557;DHT22;6344;49.932;8.308;2022-11-15T06:17:36;10.40;99.90
12557;DHT22;6344;49.932;8.308;2022-11-15T06:20:06;10.30;99.90
12557;DHT22;6344;49.932;8.308;2022-11-15T06:22:37;10.30;99.90
12557;DHT22;6344;49.932;8.308;2022-11-15T06:25:06;10.40;99.90
12557;DHT22;6344;49.932;8.308;2022-11-15T06:27:33;10.30;99.90
12557;DHT22;6344;49.932;8.308;2022-11-15T06:30:09;10.40;99.90
12557;DHT22;6344;49.932;8.308;2022-11-15T06:32:36;10.40;99.90
12557;DHT22;6344;49.932;8.308;2022-11-15T06:35:08;10.50;99.90
12557;DHT22;6344;49.932;8.308;2022-11-15T06:37:36;10.50;99.90
12557;DHT22;6344;49.932;8.308;2022-11-15T06:40:05;10.50;99.90
12557;DHT22;6344;49.932;8.308;2022-11-15T06:42:34;10.50;99.90
12557;DHT22;6344;49.932;8.308;2022-11-15T06:45:01;10.40;99.90
12557;DHT22;6344;49.932;8.308;2022-11-15T06:47:30;10.50;99.90
12557;DHT22;6344;49.932;8.308;2022-11-15T06:49:58;10.50;99.90
12557;DHT22;6344;49.932;8.308;2022-11-15T06:52:26;10.50;99.90
12557;DHT22;6344;49.932;8.308;2022-11-15T06:54:57;10.50;99.90
12557;DHT22;6344;49.932;8.308;2022-11-15T06:57:25;10.60;99.90
12557;DHT22;6344;49.932;8.308;2022-11-15T06:59:56;10.60;99.90
12557;DHT22;6344;49.932;8.308;2022-11-15T07:02:22;10.60;99.90
12557;DHT22;6344;49.932;8.308;2022-11-15T07:04:49;10.70;99.90
12557;DHT22;6344;49.932;8.308;2022-11-15T07:07:18;10.70;99.90
12557;DHT22;6344;49.932;8.308;2022-11-15T07:09:50;10.70;99.90
12557;DHT22;6344;49.932;8.308;2022-11-15T07:12:17;10.70;99.90
12557;DHT22;6344;49.932;8.308;2022-11-15T07:14:46;10.80;99.90
12557;DHT22;6344;49.932;8.308;2022-11-15T07:17:13;10.80;99.90
12557;DHT22;6344;49.932;8.308;2022-11-15T07:19:43;10.80;99.90
12557;DHT22;6344;49.932;8.308;2022-11-15T07:22:10;10.80;99.90
12557;DHT22;6344;49.932;8.308;2022-11-15T07:24:40;10.80;99.90
12557;DHT22;6344;49.932;8.308;2022-11-15T07:27:08;10.70;99.90
12557;DHT22;6344;49.932;8.308;2022-11-15T07:29:35;10.70;99.90
12557;DHT22;6344;49.932;8.308;2022-11-15T07:32:02;10.80;99.90
12557;DHT22;6344;49.932;8.308;2022-11-15T07:34:30;10.90;99.90
12557;DHT22;6344;49.932;8.308;2022-11-15T07:37:04;10.90;99.90
12557;DHT22;6344;49.932;8.308;2022-11-15T07:39:31;11.00;99.90
12557;DHT22;6344;49.932;8.308;2022-11-15T07:41:58;11.10;99.90
12557;DHT22;6344;49.932;8.308;2022-11-15T07:44:40;11.10;99.90
12557;DHT22;6344;49.932;8.308;2022-11-15T07:47:11;11.40;99.90
12557;DHT22;6344;49.932;8.308;2022-11-15T07:49:38;11.40;99.90
12557;DHT22;6344;49.932;8.308;2022-11-15T07:52:05;11.50;99.90
12557;DHT22;6344;49.932;8.308;2022-11-15T07:54:34;11.60;99.90
12557;DHT22;6344;49.932;8.308;2022-11-15T07:57:06;11.60;99.90
12557;DHT22;6344;49.932;8.308;2022-11-15T07:59:35;11.50;99.90
12557;DHT22;6344;49.932;8.308;2022-11-15T08:02:03;11.60;99.90
12557;DHT22;6344;49.932;8.308;2022-11-15T08:04:30;11.60;99.90
12557;DHT22;6344;49.932;8.308;2022-11-15T08:06:58;11.70;99.90
12557;DHT22;6344;49.932;8.308;2022-11-15T08:09:25;11.80;99.90
12557;DHT22;6344;49.932;8.308;2022-11-15T08:11:51;11.80;99.90
12557;DHT22;6344;49.932;8.308;2022-11-15T08:14:24;11.80;99.90
12557;DHT22;6344;49.932;8.308;2022-11-15T08:16:51;11.90;99.90
12557;DHT22;6344;49.932;8.308;2022-11-15T08:19:19;11.90;99.90
12557;DHT22;6344;49.932;8.308;2022-11-15T08:21:51;11.90;99.90
12557;DHT22;6344;49.932;8.308;2022-11-15T08:24:20;12.00;99.90
12557;DHT22;6344;49.932;8.308;2022-11-15T08:26:46;11.90;99.90
12557;DHT22;6344;49.932;8.308;2022-11-15T08:29:18;11.90;99.90
12557;DHT22;6344;49.932;8.308;2022-11-15T08:31:45;11.80;99.90
12557;DHT22;6344;49.932;8.308;2022-11-15T08:34:12;11.60;99.90
12557;DHT22;6344;49.932;8.308;2022-11-15T08:36:40;11.70;99.90
12557;DHT22;6344;49.932;8.308;2022-11-15T08:39:12;11.70;99.90
12557;DHT22;6344;49.932;8.308;2022-11-15T08:41:40;11.60;99.90
12557;DHT22;6344;49.932;8.308;2022-11-15T08:44:09;11.90;99.90
12557;DHT22;6344;49.932;8.308;2022-11-15T08:46:36;12.10;99.90
12557;DHT22;6344;49.932;8.308;2022-11-15T08:49:07;12.00;99.90
12557;DHT22;6344;49.932;8.308;2022-11-15T08:51:37;12.00;99.90
12557;DHT22;6344;49.932;8.308;2022-11-15T08:54:06;12.00;99.90
12557;DHT22;6344;49.932;8.308;2022-11-15T08:56:33;12.10;99.90
12557;DHT22;6344;49.932;8.308;2022-11-15T08:59:04;12.10;99.90
12557;DHT22;6344;49.932;8.308;2022-11-15T09:01:31;12.10;99.90
12557;DHT22;6344;49.932;8.308;2022-11-15T09:03:58;12.10;99.90
12557;DHT22;6344;49.932;8.308;2022-11-15T09:06:24;12.10;99.90
12557;DHT22;6344;49.932;8.308;2022-11-15T09:08:51;12.20;99.90
12557;DHT22;6344;49.932;8.308;2022-11-15T09:11:24;12.30;99.90
12557;DHT22;6344;49.932;8.308;2022-11-15T09:13:52;12.50;99.90
12557;DHT22;6344;49.932;8.308;2022-11-15T09:16:22;12.60;99.90
12557;DHT22;6344;49.932;8.308;2022-11-15T09:18:55;12.70;99.90
12557;DHT22;6344;49.932;8.308;2022-11-15T09:21:25;12.70;99.90
12557;DHT22;6344;49.932;8.308;2022-11-15T09:23:52;12.60;99.90
12557;DHT22;6344;49.932;8.308;2022-11-15T09:26:22;12.90;99.90
12557;DHT22;6344;49.932;8.308;2022-11-15T09:28:52;12.90;99.90
12557;DHT22;6344;49.932;8.308;2022-11-15T09:31:21;12.90;99.90
12557;DHT22;6344;49.932;8.308;2022-11-15T09:33:51;12.70;99.90
12557;DHT22;6344;49.932;8.308;2022-11-15T09:36:18;12.70;99.90
12557;DHT22;6344;49.932;8.308;2022-11-15T09:38:46;12.80;99.90
12557;DHT22;6344;49.932;8.308;2022-11-15T09:41:25;13.00;99.90
12557;DHT22;6344;49.932;8.308;2022-11-15T09:44:13;13.00;99.90
12557;DHT22;6344;49.932;8.308;2022-11-15T09:46:52;13.40;99.90
12557;DHT22;6344;49.932;8.308;2022-11-15T09:49:25;13.30;99.90
12557;DHT22;6344;49.932;8.308;2022-11-15T09:51:53;13.20;99.90
12557;DHT22;6344;49.932;8.308;2022-11-15T09:54:28;13.10;99.90
12557;DHT22;6344;49.932;8.308;2022-11-15T09:59:54;13.00;99.90
12557;DHT22;6344;49.932;8.308;2022-11-15T10:02:38;13.00;99.90
12557;DHT22;6344;49.932;8.308;2022-11-15T10:15:18;13.40;99.90
12557;DHT22;6344;49.932;8.308;2022-11-15T10:18:14;13.30;99.90
12557;DHT22;6344;49.932;8.308;2022-11-15T10:20:47;13.50;99.90
12557;DHT22;6344;49.932;8.308;2022-11-15T10:23:17;13.70;99.90
12557;DHT22;6344;49.932;8.308;2022-11-15T10:25:53;13.80;99.90
12557;DHT22;6344;49.932;8.308;2022-11-15T10:28:25;13.70;99.90
12557;DHT22;6344;49.932;8.308;2022-11-15T10:30:55;13.70;99.90
12557;DHT22;6344;49.932;8.308;2022-11-15T10:33:31;13.70;99.90
12557;DHT22;6344;49.932;8.308;2022-11-15T10:36:22;13.50;99.90
12557;DHT22;6344;49.932;8.308;2022-11-15T10:38:56;13.40;99.90
12557;DHT22;6344;49.932;8.308;2022-11-15T10:41:30;13.50;99.90
12557;DHT22;6344;49.932;8.308;2022-11-15T10:44:22;13.50;99.90
12557;DHT22;6344;49.932;8.308;2022-11-15T10:47:05;13.60;99.90
12557;DHT22;6344;49.932;8.308;2022-11-15T10:49:35;13.70;99.90
12557;DHT22;6344;49.932;8.308;2022-11-15T10:52:18;13.60;99.90
12557;DHT22;6344;49.932;8.308;2022-11-15T11:01:52;13.60;99.90
12557;DHT22;6344;49.932;8.308;2022-11-15T11:04:19;13.40;99.90
12557;DHT22;6344;49.932;8.308;2022-11-15T11:06:47;13.40;99.90
12557;DHT22;6344;49.932;8.308;2022-11-15T11:09:24;13.40;99.90
12557;DHT22;6344;49.932;8.308;2022-11-15T11:11:54;13.70;99.90
12557;DHT22;6344;49.932;8.308;2022-11-15T11:14:27;13.90;99.90
12557;DHT22;6344;49.932;8.308;2022-11-15T11:17:05;13.80;99.90
12557;DHT22;6344;49.932;8.308;2022-11-15T11:19:50;14.10;99.90
12557;DHT22;6344;49.932;8.308;2022-11-15T11:22:26;14.10;99.90
12557;DHT22;6344;49.932;8.308;2022-11-15T11:25:07;14.30;99.90
12557;DHT22;6344;49.932;8.308;2022-11-15T11:27:47;14.30;99.90
12557;DHT22;6344;49.932;8.308;2022-11-15T11:30:21;14.70;99.90
12557;DHT22;6344;49.932;8.308;2022-11-15T11:33:12;14.90;99.90
12557;DHT22;6344;49.932;8.308;2022-11-15T11:35:51;14.90;99.90
12557;DHT22;6344;49.932;8.308;2022-11-15T11:38:39;14.60;99.90
12557;DHT22;6344;49.932;8.308;2022-11-15T11:41:23;14.60;99.90
12557;DHT22;6344;49.932;8.308;2022-11-15T11:44:02;14.30;99.90
12557;DHT22;6344;49.932;8.308;2022-11-15T11:46:48;14.10;99.90
12557;DHT22;6344;49.932;8.308;2022-11-15T11:49:23;14.10;99.90
12557;DHT22;6344;49.932;8.308;2022-11-15T11:51:54;14.20;99.90
12557;DHT22;6344;49.932;8.308;2022-11-15T11:54:31;14.10;99.90
12557;DHT22;6344;49.932;8.308;2022-11-15T11:57:03;14.00;99.90
12557;DHT22;6344;49.932;8.308;2022-11-15T11:59:41;13.90;99.90
12557;DHT22;6344;49.932;8.308;2022-11-15T12:02:16;14.20;99.90
12557;DHT22;6344;49.932;8.308;2022-11-15T12:04:49;14.10;99.90
12557;DHT22;6344;49.932;8.308;2022-11-15T12:07:20;14.00;99.90
12557;DHT22;6344;49.932;8.308;2022-11-15T12:09:55;14.20;99.90
12557;DHT22;6344;49.932;8.308;2022-11-15T12:12:31;14.00;99.90
12557;DHT22;6344;49.932;8.308;2022-11-15T12:15:09;13.90;99.90
12557;DHT22;6344;49.932;8.308;2022-11-15T12:17:39;14.20;99.90
12557;DHT22;6344;49.932;8.308;2022-11-15T12:20:21;14.30;99.90
12557;DHT22;6344;49.932;8.308;2022-11-15T12:22:53;14.20;99.90
12557;DHT22;6344;49.932;8.308;2022-11-15T12:25:25;14.10;99.90
12557;DHT22;6344;49.932;8.308;2022-11-15T12:27:57;14.00;99.90
12557;DHT22;6344;49.932;8.308;2022-11-15T12:30:37;13.90;99.90
12557;DHT22;6344;49.932;8.308;2022-11-15T12:33:29;14.00;99.90
12557;DHT22;6344;49.932;8.308;2022-11-15T12:36:00;14.00;99.90
12557;DHT22;6344;49.932;8.308;2022-11-15T12:38:50;13.90;99.90
12557;DHT22;6344;49.932;8.308;2022-11-15T12:41:19;13.80;99.90
12557;DHT22;6344;49.932;8.308;2022-11-15T12:43:47;14.00;99.90
12557;DHT22;6344;49.932;8.308;2022-11-15T12:46:26;14.10;99.90
12557;DHT22;6344;49.932;8.308;2022-11-15T12:49:11;14.40;99.90
12557;DHT22;6344;49.932;8.308;2022-11-15T12:52:10;14.50;99.90
12557;DHT22;6344;49.932;8.308;2022-11-15T12:54:58;14.50;99.90
12557;DHT22;6344;49.932;8.308;2022-11-15T12:57:42;14.40;99.90
12557;DHT22;6344;49.932;8.308;2022-11-15T13:03:29;14.10;99.90
12557;DHT22;6344;49.932;8.308;2022-11-15T13:05:59;14.40;99.90
12557;DHT22;6344;49.932;8.308;2022-11-15T13:08:52;14.60;99.90
12557;DHT22;6344;49.932;8.308;2022-11-15T13:11:44;14.90;99.90
12557;DHT22;6344;49.932;8.308;2022-11-15T13:14:49;14.80;99.90
12557;DHT22;6344;49.932;8.308;2022-11-15T13:17:28;14.70;99.90
12557;DHT22;6344;49.932;8.308;2022-11-15T13:20:00;14.50;99.90
12557;DHT22;6344;49.932;8.308;2022-11-15T13:22:41;14.60;99.90
12557;DHT22;6344;49.932;8.308;2022-11-15T13:25:52;14.60;99.90
12557;DHT22;6344;49.932;8.308;2022-11-15T13:28:27;14.60;99.90
12557;DHT22;6344;49.932;8.308;2022-11-15T13:30:56;14.70;99.90
12557;DHT22;6344;49.932;8.308;2022-11-15T13:33:28;14.70;99.90
12557;DHT22;6344;49.932;8.308;2022-11-15T13:36:00;14.60;99.90
12557;DHT22;6344;49.932;8.308;2022-11-15T13:38:35;14.60;99.90
12557;DHT22;6344;49.932;8.308;2022-11-15T13:41:17;14.60;99.90
12557;DHT22;6344;49.932;8.308;2022-11-15T13:43:49;14.70;99.90
12557;DHT22;6344;49.932;8.308;2022-11-15T13:46:21;14.50;99.90
12557;DHT22;6344;49.932;8.308;2022-11-15T13:48:52;14.50;99.90
12557;DHT22;6344;49.932;8.308;2022-11-15T13:51:24;14.40;99.90
12557;DHT22;6344;49.932;8.308;2022-11-15T13:54:00;14.20;99.90
12557;DHT22;6344;49.932;8.308;2022-11-15T13:56:31;14.30;99.90
12557;DHT22;6344;49.932;8.308;2022-11-15T13:59:07;14.10;99.90
12557;DHT22;6344;49.932;8.308;2022-11-15T14:01:34;14.00;99.90
12557;DHT22;6344;49.932;8.308;2022-11-15T14:04:01;13.90;99.90
12557;DHT22;6344;49.932;8.308;2022-11-15T14:06:30;13.90;99.90
12557;DHT22;6344;49.932;8.308;2022-11-15T14:09:02;13.70;99.90
12557;DHT22;6344;49.932;8.308;2022-11-15T14:11:30;13.70;99.90
12557;DHT22;6344;49.932;8.308;2022-11-15T14:14:13;13.70;99.90
12557;DHT22;6344;49.932;8.308;2022-11-15T14:16:42;13.60;99.90
12557;DHT22;6344;49.932;8.308;2022-11-15T14:19:12;13.60;99.90
12557;DHT22;6344;49.932;8.308;2022-11-15T14:22:10;13.70;99.90
12557;DHT22;6344;49.932;8.308;2022-11-15T14:24:37;13.50;99.90
12557;DHT22;6344;49.932;8.308;2022-11-15T14:27:25;13.60;99.90
12557;DHT22;6344;49.932;8.308;2022-11-15T14:29:57;13.60;99.90
12557;DHT22;6344;49.932;8.308;2022-11-15T14:32:25;13.60;99.90
12557;DHT22;6344;49.932;8.308;2022-11-15T14:34:55;13.50;99.90
12557;DHT22;6344;49.932;8.308;2022-11-15T14:37:28;13.40;99.90
12557;DHT22;6344;49.932;8.308;2022-11-15T14:39:56;13.30;99.90
12557;DHT22;6344;49.932;8.308;2022-11-15T14:42:25;13.30;99.90
12557;DHT22;6344;49.932;8.308;2022-11-15T14:44:52;13.20;99.90
12557;DHT22;6344;49.932;8.308;2022-11-15T14:47:19;13.20;99.90
12557;DHT22;6344;49.932;8.308;2022-11-15T14:49:46;13.30;99.90
12557;DHT22;6344;49.932;8.308;2022-11-15T14:52:28;13.30;99.90
12557;DHT22;6344;49.932;8.308;2022-11-15T14:54:59;13.30;99.90
12557;DHT22;6344;49.932;8.308;2022-11-15T14:57:28;13.40;99.90
12557;DHT22;6344;49.932;8.308;2022-11-15T14:59:55;13.40;99.90
12557;DHT22;6344;49.932;8.308;2022-11-15T15:02:28;13.40;99.90
12557;DHT22;6344;49.932;8.308;2022-11-15T15:04:55;13.50;99.90
12557;DHT22;6344;49.932;8.308;2022-11-15T15:07:27;13.50;99.90
12557;DHT22;6344;49.932;8.308;2022-11-15T15:09:53;13.50;99.90
12557;DHT22;6344;49.932;8.308;2022-11-15T15:12:25;13.30;99.90
12557;DHT22;6344;49.932;8.308;2022-11-15T15:14:53;13.30;99.90
12557;DHT22;6344;49.932;8.308;2022-11-15T15:17:21;13.20;99.90
12557;DHT22;6344;49.932;8.308;2022-11-15T15:19:47;13.00;99.90
12557;DHT22;6344;49.932;8.308;2022-11-15T15:22:17;12.80;99.90
12557;DHT22;6344;49.932;8.308;2022-11-15T15:24:44;12.70;99.90
12557;DHT22;6344;49.932;8.308;2022-11-15T15:27:12;12.60;99.90
12557;DHT22;6344;49.932;8.308;2022-11-15T15:29:40;12.60;99.90
12557;DHT22;6344;49.932;8.308;2022-11-15T15:32:09;12.60;99.90
12557;DHT22;6344;49.932;8.308;2022-11-15T15:34:36;12.60;99.90
12557;DHT22;6344;49.932;8.308;2022-11-15T15:37:08;12.60;99.90
12557;DHT22;6344;49.932;8.308;2022-11-15T15:39:34;12.60;99.90
12557;DHT22;6344;49.932;8.308;2022-11-15T15:42:06;12.50;99.90
12557;DHT22;6344;49.932;8.308;2022-11-15T15:44:33;12.50;99.90
12557;DHT22;6344;49.932;8.308;2022-11-15T15:47:03;12.50;99.90
12557;DHT22;6344;49.932;8.308;2022-11-15T15:49:39;12.40;99.90
12557;DHT22;6344;49.932;8.308;2022-11-15T15:52:08;12.40;99.90
12557;DHT22;6344;49.932;8.308;2022-11-15T15:54:37;12.30;99.90
12557;DHT22;6344;49.932;8.308;2022-11-15T15:57:04;12.20;99.90
12557;DHT22;6344;49.932;8.308;2022-11-15T15:59:31;12.20;99.90
12557;DHT22;6344;49.932;8.308;2022-11-15T16:01:57;12.20;99.90
12557;DHT22;6344;49.932;8.308;2022-11-15T16:04:26;12.20;99.90
12557;DHT22;6344;49.932;8.308;2022-11-15T16:06:58;12.10;99.90
12557;DHT22;6344;49.932;8.308;2022-11-15T16:09:24;12.00;99.90
12557;DHT22;6344;49.932;8.308;2022-11-15T16:12:08;12.00;99.90
12557;DHT22;6344;49.932;8.308;2022-11-15T16:14:35;11.90;99.90
12557;DHT22;6344;49.932;8.308;2022-11-15T16:17:03;11.80;99.90
12557;DHT22;6344;49.932;8.308;2022-11-15T16:19:30;11.80;99.90
12557;DHT22;6344;49.932;8.308;2022-11-15T16:21:58;11.70;99.90
12557;DHT22;6344;49.932;8.308;2022-11-15T16:24:27;11.70;99.90
12557;DHT22;6344;49.932;8.308;2022-11-15T16:26:57;11.60;99.90
12557;DHT22;6344;49.932;8.308;2022-11-15T16:29:24;11.50;99.90
12557;DHT22;6344;49.932;8.308;2022-11-15T16:31:50;11.40;99.90
12557;DHT22;6344;49.932;8.308;2022-11-15T16:34:22;11.50;99.90
12557;DHT22;6344;49.932;8.308;2022-11-15T16:36:50;11.40;99.90
12557;DHT22;6344;49.932;8.308;2022-11-15T16:39:18;11.50;99.90
12557;DHT22;6344;49.932;8.308;2022-11-15T16:41:57;11.70;99.90
12557;DHT22;6344;49.932;8.308;2022-11-15T16:44:36;11.50;99.90
12557;DHT22;6344;49.932;8.308;2022-11-15T16:47:04;11.60;99.90
12557;DHT22;6344;49.932;8.308;2022-11-15T16:49:31;11.70;99.90